Basic Princess — 3EVW9 — position and weather

sailwx.info

Track history (hours):
 
Tides and Currents Weather Stations Pressure Air Temp Water Temp Dewpoint Dewpoint Depression Visibility Wind Speed Wind Dir Waves Ship Positions

Basic Princess

Last reported at 2018-Feb-18 15:12 UTC. Time now 2018-Feb-19 14:28 UTC.
Position N 36°29' W 008°57'.

Length 180 m; draft 10.3 m.

Type: Cargo ship. MMSI: 373240000.

Date/timePositionNaut miles runAvg speedWind from/ knotsBaromVisibWave heightAir tempDewpointWater temp
2018-Feb-18 15:12N 36°29' W 008°57'313.4
2018-Feb-18 15:00N 36°30' W 009°01'713.4
2018-Feb-18 14:30N 36°31' W 009°09'713.3
2018-Feb-18 14:00N 36°33' W 009°16'713.4
2018-Feb-18 13:29N 36°38' W 009°23'713.6
2018-Feb-18 13:00N 36°43' W 009°28'713.1
2018-Feb-18 12:30N 36°48' W 009°33'713.6
2018-Feb-18 12:00N 36°55' W 009°35'1113.7
2018-Feb-18 11:12N 37°06' W 009°37'613.4
2018-Feb-18 10:47N 37°11' W 009°38'413.3
2018-Feb-18 10:30N 37°15' W 009°39'713.5
2018-Feb-18 10:00N 37°21' W 009°41'713.3
2018-Feb-18 09:28N 37°29' W 009°43'613.3
2018-Feb-18 09:00N 37°34' W 009°45'713.2
2018-Feb-18 08:30N 37°41' W 009°47'713.4
2018-Feb-18 08:00N 37°47' W 009°48'713.4
2018-Feb-18 07:28N 37°54' W 009°50'613.8
2018-Feb-18 07:00N 38°01' W 009°53'713.6
2018-Feb-18 06:30N 38°07' W 009°55'713.2
2018-Feb-18 06:00N 38°14' W 009°56'713.3
2018-Feb-18 05:30N 38°20' W 009°58'714.1
2018-Feb-18 05:00N 38°27' W 010°01'714.2
2018-Feb-18 04:30N 38°34' W 010°04'713.5
2018-Feb-18 04:00N 38°40' W 010°06'713.2
2018-Feb-18 03:30N 38°47' W 010°06'713.2
2018-Feb-18 03:00N 38°53' W 010°06'713.1
2018-Feb-18 02:30N 38°60' W 010°06'713.0
2018-Feb-18 02:00N 39°07' W 010°06'713.3
2018-Feb-18 01:30N 39°13' W 010°06'713.1
2018-Feb-18 00:59N 39°20' W 010°06'  
2018-Feb-15 09:55N 52°05' W 005°46'610.5
2018-Feb-15 09:23N 52°11' W 005°43'510.3
2018-Feb-15 08:54N 52°15' W 005°40'5 9.9
2018-Feb-15 08:21N 52°20' W 005°37'2810.4
2018-Feb-15 05:43N 52°46' W 005°21'6512.5
2018-Feb-15 00:31N 53°34' W 004°08'114.0
2018-Feb-15 00:25N 53°34' W 004°06'613.8
2018-Feb-15 00:00N 53°34' W 003°56'713.2
2018-Feb-14 23:30N 53°34' W 003°45'613.1
2018-Feb-14 23:00N 53°34' W 003°34'612.7
2018-Feb-14 22:30N 53°33' W 003°23'510.0
2018-Feb-14 22:00N 53°31' W 003°15'5 9.2
2018-Feb-14 21:30N 53°32' W 003°08'4 8.8
2018-Feb-14 21:00N 53°28' W 003°03'2 3.4
2018-Feb-14 20:30N 53°27' W 003°01'0 0.3
2018-Feb-14 19:57N 53°27' W 003°01'0 0.5
2018-Feb-14 19:30N 53°27' W 003°01'0 0.5
2018-Feb-14 19:00N 53°27' W 003°01'0 0.0
2018-Feb-14 18:27N 53°27' W 003°01'0 0.0
2018-Feb-14 18:00N 53°27' W 003°01'0 0.0
2018-Feb-14 17:30N 53°27' W 003°01'0 0.0
2018-Feb-14 17:00N 53°27' W 003°01'0 0.0
2018-Feb-14 16:30N 53°27' W 003°01'0 0.0
2018-Feb-14 16:00N 53°27' W 003°01'0 0.0
2018-Feb-14 15:30N 53°27' W 003°01'0 0.0
2018-Feb-14 15:00N 53°27' W 003°01'0 0.0
2018-Feb-14 14:30N 53°27' W 003°01'0 0.0
2018-Feb-14 14:00N 53°27' W 003°01'0 0.0
2018-Feb-14 13:30N 53°27' W 003°01'0 0.0
2018-Feb-14 13:00N 53°27' W 003°01'0 0.0
2018-Feb-14 12:30N 53°27' W 003°01'0 0.0
2018-Feb-14 12:00N 53°27' W 003°01'0 0.0
2018-Feb-14 11:30N 53°27' W 003°01'0 0.0
2018-Feb-14 11:00N 53°27' W 003°01'0 0.0
2018-Feb-14 10:30N 53°27' W 003°01'0 0.0
2018-Feb-14 10:00N 53°27' W 003°01'0 0.0
2018-Feb-14 09:27N 53°27' W 003°01'0 0.0
2018-Feb-14 09:00N 53°27' W 003°01'0 0.0
2018-Feb-14 08:30N 53°27' W 003°01'0 0.0
2018-Feb-14 08:00N 53°27' W 003°01'0 0.0
2018-Feb-14 07:30N 53°27' W 003°01'0 0.0
2018-Feb-14 07:00N 53°27' W 003°01'0 0.0
2018-Feb-14 06:27N 53°27' W 003°01'0 0.0
2018-Feb-14 05:57N 53°27' W 003°01'0 0.0
2018-Feb-14 05:30N 53°27' W 003°01'0 0.0
2018-Feb-14 04:57N 53°27' W 003°01'0 0.0
2018-Feb-14 04:27N 53°27' W 003°01'0 0.0
2018-Feb-14 04:00N 53°27' W 003°01'0 0.0
2018-Feb-14 03:30N 53°27' W 003°01'0 0.0
2018-Feb-14 03:00N 53°27' W 003°01'0 0.0
2018-Feb-14 02:27N 53°27' W 003°01'0 0.0
2018-Feb-14 02:00N 53°27' W 003°01'0 0.0
2018-Feb-14 01:30N 53°27' W 003°01'0 0.0
2018-Feb-14 01:00N 53°27' W 003°01'0 0.0
2018-Feb-14 00:30N 53°27' W 003°01'0 0.0
2018-Feb-14 00:00N 53°27' W 003°01'0 0.0
2018-Feb-13 23:30N 53°27' W 003°01'0 0.0
2018-Feb-13 23:00N 53°27' W 003°01'0 0.0
2018-Feb-13 22:30N 53°27' W 003°01'0 0.0
2018-Feb-13 22:00N 53°27' W 003°01'0 0.0
2018-Feb-13 21:27N 53°27' W 003°01'0 0.0
2018-Feb-13 20:57N 53°27' W 003°01'0 0.0
2018-Feb-13 20:30N 53°27' W 003°01'0 0.0
2018-Feb-13 20:00N 53°27' W 003°01'0 0.0
2018-Feb-13 19:30N 53°27' W 003°01'0 0.0
2018-Feb-13 19:00N 53°27' W 003°01'0 0.0
2018-Feb-13 18:27N 53°27' W 003°01'0 0.0
2018-Feb-13 18:00N 53°27' W 003°01'0 0.0
2018-Feb-13 17:27N 53°27' W 003°01'0 0.0
2018-Feb-13 16:57N 53°27' W 003°01'0 0.0
2018-Feb-13 16:30N 53°27' W 003°01'0 0.0
2018-Feb-13 16:00N 53°27' W 003°01'0 0.0
2018-Feb-13 15:30N 53°27' W 003°01'0 0.0
2018-Feb-13 15:00N 53°27' W 003°01'0 0.0
2018-Feb-13 14:30N 53°27' W 003°01'0 0.0
2018-Feb-13 14:00N 53°27' W 003°01'0 0.0
2018-Feb-13 13:30N 53°27' W 003°01'0 0.0
2018-Feb-13 13:00N 53°27' W 003°01'0 0.0
2018-Feb-13 12:30N 53°27' W 003°01'0 0.0
2018-Feb-13 12:00N 53°27' W 003°01'0 0.0
2018-Feb-13 11:30N 53°27' W 003°01'0 0.0
2018-Feb-13 10:57N 53°27' W 003°01'0 0.0
2018-Feb-13 10:30N 53°27' W 003°01'0 0.0
2018-Feb-13 10:00N 53°27' W 003°01'0 0.0
2018-Feb-13 09:27N 53°27' W 003°01'0 0.0
2018-Feb-13 09:00N 53°27' W 003°01'0 0.0
2018-Feb-13 08:30N 53°27' W 003°01'0 0.0
2018-Feb-13 08:00N 53°27' W 003°01'0 0.0
2018-Feb-13 07:30N 53°27' W 003°01'0 0.0
2018-Feb-13 07:00N 53°27' W 003°01'0 0.0
2018-Feb-13 06:27N 53°27' W 003°01'0 0.0
2018-Feb-13 06:00N 53°27' W 003°01'0 0.0
2018-Feb-13 05:30N 53°27' W 003°01'0 0.0
2018-Feb-13 05:00N 53°27' W 003°01'0 0.0
2018-Feb-13 04:30N 53°27' W 003°01'0 0.0
2018-Feb-13 04:00N 53°27' W 003°01'0 0.0
2018-Feb-13 03:30N 53°27' W 003°01'0 0.0
2018-Feb-13 02:57N 53°27' W 003°01'0 0.0
2018-Feb-13 02:30N 53°27' W 003°01'0 0.0
2018-Feb-13 01:57N 53°27' W 003°01'0 0.0
2018-Feb-13 01:30N 53°27' W 003°01'0 0.0
2018-Feb-13 01:00N 53°27' W 003°01'0 0.0
2018-Feb-13 00:30N 53°27' W 003°01'0 0.0
2018-Feb-13 00:00N 53°27' W 003°01'0 0.0
2018-Feb-12 23:30N 53°27' W 003°01'0 0.0
2018-Feb-12 22:54N 53°27' W 003°01'0 0.0
2018-Feb-12 22:30N 53°27' W 003°01'0 0.0
2018-Feb-12 22:00N 53°27' W 003°01'0 0.0
2018-Feb-12 21:30N 53°27' W 003°01'0 0.0
2018-Feb-12 21:00N 53°27' W 003°01'0 0.0
2018-Feb-12 20:30N 53°27' W 003°01'0 0.5
2018-Feb-12 20:00N 53°27' W 003°01'0 0.4
2018-Feb-12 19:30N 53°27' W 003°01'1 1.3
2018-Feb-12 18:58N 53°26' W 003°01'0 0.0
2018-Feb-12 18:22N 53°26' W 003°01'0 0.9
2018-Feb-12 17:58N 53°27' W 003°01'0 0.3
2018-Feb-12 17:28N 53°27' W 003°01'0 0.0
2018-Feb-12 16:55N 53°27' W 003°01'0 0.0
2018-Feb-12 16:19N 53°27' W 003°01'0 0.0
2018-Feb-12 15:58N 53°27' W 003°01'0 0.0
2018-Feb-12 15:13N 53°27' W 003°01'0 0.0
2018-Feb-12 14:58N 53°27' W 003°01'0 0.0
2018-Feb-12 14:28N 53°27' W 003°01'0 0.0
2018-Feb-12 13:55N 53°27' W 003°01'0 0.0
2018-Feb-12 13:28N 53°27' W 003°01'0 0.0
2018-Feb-12 12:58N 53°27' W 003°01'0 0.0
2018-Feb-12 12:28N 53°27' W 003°01'0 0.0
2018-Feb-12 11:58N 53°27' W 003°01'0 0.0
2018-Feb-12 11:28N 53°27' W 003°01'0 0.0
2018-Feb-12 10:55N 53°27' W 003°01'0 0.0
2018-Feb-12 10:28N 53°27' W 003°01'0 0.0
2018-Feb-12 09:55N 53°27' W 003°01'0 0.0
2018-Feb-12 09:28N 53°27' W 003°01'0 0.0
2018-Feb-12 08:58N 53°27' W 003°01'0 0.0
2018-Feb-12 08:22N 53°27' W 003°01'0 0.0
2018-Feb-12 07:58N 53°27' W 003°01'0 0.0
2018-Feb-12 07:28N 53°27' W 003°01'0 0.0
2018-Feb-12 06:58N 53°27' W 003°01'0 0.0
2018-Feb-12 06:28N 53°27' W 003°01'0 0.0
2018-Feb-12 05:55N 53°27' W 003°01'0 0.0
2018-Feb-12 05:28N 53°27' W 003°01'0 0.0
2018-Feb-12 04:55N 53°27' W 003°01'0 0.0
2018-Feb-12 04:28N 53°27' W 003°01'0 0.0
2018-Feb-12 03:58N 53°27' W 003°01'0 0.0
2018-Feb-12 03:22N 53°27' W 003°01'0 0.0
2018-Feb-12 02:58N 53°27' W 003°01'0 0.0
2018-Feb-12 02:28N 53°27' W 003°01'0 0.0
2018-Feb-12 01:58N 53°27' W 003°01'0 0.0
2018-Feb-12 01:28N 53°27' W 003°01'0 0.0
2018-Feb-12 00:55N 53°27' W 003°01'0 0.0
2018-Feb-12 00:28N 53°27' W 003°01'0 0.0
2018-Feb-11 23:58N 53°27' W 003°01'0 0.0
2018-Feb-11 23:25N 53°27' W 003°01'0 0.0
2018-Feb-11 22:58N 53°27' W 003°01'0 0.0
2018-Feb-11 22:25N 53°27' W 003°01'0 0.0
2018-Feb-11 21:58N 53°27' W 003°01'0 0.0
2018-Feb-11 21:28N 53°27' W 003°01'0 0.0
2018-Feb-11 20:58N 53°27' W 003°01'0 0.0
2018-Feb-11 20:28N 53°27' W 003°01'0 0.0
2018-Feb-11 19:58N 53°27' W 003°01'0 0.0
2018-Feb-11 19:28N 53°27' W 003°01'0 0.0
2018-Feb-11 18:58N 53°27' W 003°01'0 0.0
2018-Feb-11 18:28N 53°27' W 003°01'0 0.0
2018-Feb-11 17:58N 53°27' W 003°01'0 0.0
2018-Feb-11 17:28N 53°27' W 003°01'0 0.0
2018-Feb-11 16:55N 53°27' W 003°01'0 0.0
2018-Feb-11 16:28N 53°27' W 003°01'0 0.0
2018-Feb-11 15:55N 53°27' W 003°01'0 0.0
2018-Feb-11 15:28N 53°27' W 003°01'0 0.0
2018-Feb-11 14:58N 53°27' W 003°01'0 0.0
2018-Feb-11 14:28N 53°27' W 003°01'0 0.0
2018-Feb-11 13:58N 53°27' W 003°01'0 0.0
2018-Feb-11 13:28N 53°27' W 003°01'0 0.0
2018-Feb-11 12:55N 53°27' W 003°01'0 0.0
2018-Feb-11 12:28N 53°27' W 003°01'0 0.0
2018-Feb-11 11:58N 53°27' W 003°01'0 0.0
2018-Feb-11 11:28N 53°27' W 003°01'0 0.0
2018-Feb-11 10:58N 53°27' W 003°01'0 0.0
2018-Feb-11 10:25N 53°27' W 003°01'0 0.0
2018-Feb-11 09:58N 53°27' W 003°01'0 0.0
2018-Feb-11 09:28N 53°27' W 003°01'0 0.0
2018-Feb-11 08:55N 53°27' W 003°01'0 0.0
2018-Feb-11 08:25N 53°27' W 003°01'0 0.0
2018-Feb-11 07:58N 53°27' W 003°01'0 0.0
2018-Feb-11 07:28N 53°27' W 003°01'0 0.0
2018-Feb-11 06:58N 53°27' W 003°01'0 0.0
2018-Feb-11 06:28N 53°27' W 003°01'0 0.0
2018-Feb-11 05:58N 53°27' W 003°01'0 0.0
2018-Feb-11 05:28N 53°27' W 003°01'0 0.0
2018-Feb-11 04:55N 53°27' W 003°01'0 0.0
2018-Feb-11 04:25N 53°27' W 003°01'0 0.0
2018-Feb-11 03:58N 53°27' W 003°01'0 0.0
2018-Feb-11 03:19N 53°27' W 003°01'0 0.0
2018-Feb-11 02:58N 53°27' W 003°01'0 0.0
2018-Feb-11 02:28N 53°27' W 003°01'0 0.0
2018-Feb-11 01:58N 53°27' W 003°01'0 0.0
2018-Feb-11 01:28N 53°27' W 003°01'0 0.0
2018-Feb-11 00:55N 53°27' W 003°01'0 0.0
2018-Feb-11 00:28N 53°27' W 003°01'0 0.0
2018-Feb-10 23:58N 53°27' W 003°01'0 0.0
2018-Feb-10 23:28N 53°27' W 003°01'0 0.0
2018-Feb-10 22:58N 53°27' W 003°01'0 0.0
2018-Feb-10 22:28N 53°27' W 003°01'0 0.0
2018-Feb-10 21:58N 53°27' W 003°01'0 0.0
2018-Feb-10 21:28N 53°27' W 003°01'0 0.0
2018-Feb-10 20:58N 53°27' W 003°01'0 0.0
2018-Feb-10 20:28N 53°27' W 003°01'0 0.0
2018-Feb-10 19:58N 53°27' W 003°01'0 0.0
2018-Feb-10 19:28N 53°27' W 003°01'0 0.0
2018-Feb-10 18:58N 53°27' W 003°01'0 0.0
2018-Feb-10 18:28N 53°27' W 003°01'0 0.0
2018-Feb-10 17:58N 53°27' W 003°01'0 0.0
2018-Feb-10 17:28N 53°27' W 003°01'0 0.0
2018-Feb-10 16:58N 53°27' W 003°01'0 0.0
2018-Feb-10 16:22N 53°27' W 003°01'0 0.0
2018-Feb-10 15:58N 53°27' W 003°01'0 0.0
2018-Feb-10 15:28N 53°27' W 003°01'0 0.0
2018-Feb-10 14:58N 53°27' W 003°01'0 0.0
2018-Feb-10 14:28N 53°27' W 003°01'0 0.0
2018-Feb-10 13:58N 53°27' W 003°01'0 0.0
2018-Feb-10 13:25N 53°27' W 003°01'0 0.0
2018-Feb-10 12:58N 53°27' W 003°01'0 0.0
2018-Feb-10 12:25N 53°27' W 003°01'0 0.0
2018-Feb-10 11:58N 53°27' W 003°01'0 0.0
2018-Feb-10 11:28N 53°27' W 003°01'0 0.0
2018-Feb-10 10:58N 53°27' W 003°01'0 0.0
2018-Feb-10 10:25N 53°27' W 003°01'0 0.0
2018-Feb-10 09:58N 53°27' W 003°01'0 0.0
2018-Feb-10 09:25N 53°27' W 003°01'0 0.0
2018-Feb-10 08:58N 53°27' W 003°01'0 0.0
2018-Feb-10 08:28N 53°27' W 003°01'0 0.0
2018-Feb-10 07:55N 53°27' W 003°01'0 0.0
2018-Feb-10 07:28N 53°27' W 003°01'0 0.0
2018-Feb-10 06:58N 53°27' W 003°01'0 0.0
2018-Feb-10 06:28N 53°27' W 003°01'0 0.0
2018-Feb-10 05:58N 53°27' W 003°01'0 0.0
2018-Feb-10 05:28N 53°27' W 003°01'0 0.0
2018-Feb-10 04:58N 53°27' W 003°01'0 0.0
2018-Feb-10 04:28N 53°27' W 003°01'0 0.0
2018-Feb-10 03:58N 53°27' W 003°01'0 0.0
2018-Feb-10 03:28N 53°27' W 003°01'0 0.0
2018-Feb-10 02:55N 53°27' W 003°01'0 0.0
2018-Feb-10 02:28N 53°27' W 003°01'0 0.0
2018-Feb-10 01:58N 53°27' W 003°01'0 0.0
2018-Feb-10 01:28N 53°27' W 003°01'0 0.0
2018-Feb-10 00:58N 53°27' W 003°01'0 0.0
2018-Feb-10 00:28N 53°27' W 003°01'0 0.0
2018-Feb-09 23:58N 53°27' W 003°01'0 0.0
2018-Feb-09 23:28N 53°27' W 003°01'0 0.0
2018-Feb-09 22:55N 53°27' W 003°01'0 0.0
2018-Feb-09 22:43N 53°27' W 003°01'  
Track history (hours):
 
Tides and Currents Weather Stations Pressure Air Temp Water Temp Dewpoint Dewpoint Depression Visibility Wind Speed Wind Dir Waves Ship Positions

Basic Princess

Last reported at 2018-Feb-18 15:12 UTC. Time now 2018-Feb-19 14:28 UTC.
Position N 36°29' W 008°57'.

Length 180 m; draft 10.3 m.

Type: Cargo ship. MMSI: 373240000.

Date/timePositionNaut miles runAvg speedWind from/ knotsBaromVisibWave heightAir tempDewpointWater temp
2018-Feb-18 15:12N 36°29' W 008°57'313.4
2018-Feb-18 15:00N 36°30' W 009°01'713.4
2018-Feb-18 14:30N 36°31' W 009°09'713.3
2018-Feb-18 14:00N 36°33' W 009°16'713.4
2018-Feb-18 13:29N 36°38' W 009°23'713.6
2018-Feb-18 13:00N 36°43' W 009°28'713.1
2018-Feb-18 12:30N 36°48' W 009°33'713.6
2018-Feb-18 12:00N 36°55' W 009°35'1113.7
2018-Feb-18 11:12N 37°06' W 009°37'613.4
2018-Feb-18 10:47N 37°11' W 009°38'413.3
2018-Feb-18 10:30N 37°15' W 009°39'713.5
2018-Feb-18 10:00N 37°21' W 009°41'713.3
2018-Feb-18 09:28N 37°29' W 009°43'613.3
2018-Feb-18 09:00N 37°34' W 009°45'713.2
2018-Feb-18 08:30N 37°41' W 009°47'713.4
2018-Feb-18 08:00N 37°47' W 009°48'713.4
2018-Feb-18 07:28N 37°54' W 009°50'613.8
2018-Feb-18 07:00N 38°01' W 009°53'713.6
2018-Feb-18 06:30N 38°07' W 009°55'713.2
2018-Feb-18 06:00N 38°14' W 009°56'713.3
2018-Feb-18 05:30N 38°20' W 009°58'714.1
2018-Feb-18 05:00N 38°27' W 010°01'714.2
2018-Feb-18 04:30N 38°34' W 010°04'713.5
2018-Feb-18 04:00N 38°40' W 010°06'713.2
2018-Feb-18 03:30N 38°47' W 010°06'713.2
2018-Feb-18 03:00N 38°53' W 010°06'713.1
2018-Feb-18 02:30N 38°60' W 010°06'713.0
2018-Feb-18 02:00N 39°07' W 010°06'713.3
2018-Feb-18 01:30N 39°13' W 010°06'713.1
2018-Feb-18 00:59N 39°20' W 010°06'  
2018-Feb-15 09:55N 52°05' W 005°46'610.5
2018-Feb-15 09:23N 52°11' W 005°43'510.3
2018-Feb-15 08:54N 52°15' W 005°40'5 9.9
2018-Feb-15 08:21N 52°20' W 005°37'2810.4
2018-Feb-15 05:43N 52°46' W 005°21'6512.5
2018-Feb-15 00:31N 53°34' W 004°08'114.0
2018-Feb-15 00:25N 53°34' W 004°06'613.8
2018-Feb-15 00:00N 53°34' W 003°56'713.2
2018-Feb-14 23:30N 53°34' W 003°45'613.1
2018-Feb-14 23:00N 53°34' W 003°34'612.7
2018-Feb-14 22:30N 53°33' W 003°23'510.0
2018-Feb-14 22:00N 53°31' W 003°15'5 9.2
2018-Feb-14 21:30N 53°32' W 003°08'4 8.8
2018-Feb-14 21:00N 53°28' W 003°03'2 3.4
2018-Feb-14 20:30N 53°27' W 003°01'0 0.3
2018-Feb-14 19:57N 53°27' W 003°01'0 0.5
2018-Feb-14 19:30N 53°27' W 003°01'0 0.5
2018-Feb-14 19:00N 53°27' W 003°01'0 0.0
2018-Feb-14 18:27N 53°27' W 003°01'0 0.0
2018-Feb-14 18:00N 53°27' W 003°01'0 0.0
2018-Feb-14 17:30N 53°27' W 003°01'0 0.0
2018-Feb-14 17:00N 53°27' W 003°01'0 0.0
2018-Feb-14 16:30N 53°27' W 003°01'0 0.0
2018-Feb-14 16:00N 53°27' W 003°01'0 0.0
2018-Feb-14 15:30N 53°27' W 003°01'0 0.0
2018-Feb-14 15:00N 53°27' W 003°01'0 0.0
2018-Feb-14 14:30N 53°27' W 003°01'0 0.0
2018-Feb-14 14:00N 53°27' W 003°01'0 0.0
2018-Feb-14 13:30N 53°27' W 003°01'0 0.0
2018-Feb-14 13:00N 53°27' W 003°01'0 0.0
2018-Feb-14 12:30N 53°27' W 003°01'0 0.0
2018-Feb-14 12:00N 53°27' W 003°01'0 0.0
2018-Feb-14 11:30N 53°27' W 003°01'0 0.0
2018-Feb-14 11:00N 53°27' W 003°01'0 0.0
2018-Feb-14 10:30N 53°27' W 003°01'0 0.0
2018-Feb-14 10:00N 53°27' W 003°01'0 0.0
2018-Feb-14 09:27N 53°27' W 003°01'0 0.0
2018-Feb-14 09:00N 53°27' W 003°01'0 0.0
2018-Feb-14 08:30N 53°27' W 003°01'0 0.0
2018-Feb-14 08:00N 53°27' W 003°01'0 0.0
2018-Feb-14 07:30N 53°27' W 003°01'0 0.0
2018-Feb-14 07:00N 53°27' W 003°01'0 0.0
2018-Feb-14 06:27N 53°27' W 003°01'0 0.0
2018-Feb-14 05:57N 53°27' W 003°01'0 0.0
2018-Feb-14 05:30N 53°27' W 003°01'0 0.0
2018-Feb-14 04:57N 53°27' W 003°01'0 0.0
2018-Feb-14 04:27N 53°27' W 003°01'0 0.0
2018-Feb-14 04:00N 53°27' W 003°01'0 0.0
2018-Feb-14 03:30N 53°27' W 003°01'0 0.0
2018-Feb-14 03:00N 53°27' W 003°01'0 0.0
2018-Feb-14 02:27N 53°27' W 003°01'0 0.0
2018-Feb-14 02:00N 53°27' W 003°01'0 0.0
2018-Feb-14 01:30N 53°27' W 003°01'0 0.0
2018-Feb-14 01:00N 53°27' W 003°01'0 0.0
2018-Feb-14 00:30N 53°27' W 003°01'0 0.0
2018-Feb-14 00:00N 53°27' W 003°01'0 0.0
2018-Feb-13 23:30N 53°27' W 003°01'0 0.0
2018-Feb-13 23:00N 53°27' W 003°01'0 0.0
2018-Feb-13 22:30N 53°27' W 003°01'0 0.0
2018-Feb-13 22:00N 53°27' W 003°01'0 0.0
2018-Feb-13 21:27N 53°27' W 003°01'0 0.0
2018-Feb-13 20:57N 53°27' W 003°01'0 0.0
2018-Feb-13 20:30N 53°27' W 003°01'0 0.0
2018-Feb-13 20:00N 53°27' W 003°01'0 0.0
2018-Feb-13 19:30N 53°27' W 003°01'0 0.0
2018-Feb-13 19:00N 53°27' W 003°01'0 0.0
2018-Feb-13 18:27N 53°27' W 003°01'0 0.0
2018-Feb-13 18:00N 53°27' W 003°01'0 0.0
2018-Feb-13 17:27N 53°27' W 003°01'0 0.0
2018-Feb-13 16:57N 53°27' W 003°01'0 0.0
2018-Feb-13 16:30N 53°27' W 003°01'0 0.0
2018-Feb-13 16:00N 53°27' W 003°01'0 0.0
2018-Feb-13 15:30N 53°27' W 003°01'0 0.0
2018-Feb-13 15:00N 53°27' W 003°01'0 0.0
2018-Feb-13 14:30N 53°27' W 003°01'0 0.0
2018-Feb-13 14:00N 53°27' W 003°01'0 0.0
2018-Feb-13 13:30N 53°27' W 003°01'0 0.0
2018-Feb-13 13:00N 53°27' W 003°01'0 0.0
2018-Feb-13 12:30N 53°27' W 003°01'0 0.0
2018-Feb-13 12:00N 53°27' W 003°01'0 0.0
2018-Feb-13 11:30N 53°27' W 003°01'0 0.0
2018-Feb-13 10:57N 53°27' W 003°01'0 0.0
2018-Feb-13 10:30N 53°27' W 003°01'0 0.0
2018-Feb-13 10:00N 53°27' W 003°01'0 0.0
2018-Feb-13 09:27N 53°27' W 003°01'0 0.0
2018-Feb-13 09:00N 53°27' W 003°01'0 0.0
2018-Feb-13 08:30N 53°27' W 003°01'0 0.0
2018-Feb-13 08:00N 53°27' W 003°01'0 0.0
2018-Feb-13 07:30N 53°27' W 003°01'0 0.0
2018-Feb-13 07:00N 53°27' W 003°01'0 0.0
2018-Feb-13 06:27N 53°27' W 003°01'0 0.0
2018-Feb-13 06:00N 53°27' W 003°01'0 0.0
2018-Feb-13 05:30N 53°27' W 003°01'0 0.0
2018-Feb-13 05:00N 53°27' W 003°01'0 0.0
2018-Feb-13 04:30N 53°27' W 003°01'0 0.0
2018-Feb-13 04:00N 53°27' W 003°01'0 0.0
2018-Feb-13 03:30N 53°27' W 003°01'0 0.0
2018-Feb-13 02:57N 53°27' W 003°01'0 0.0
2018-Feb-13 02:30N 53°27' W 003°01'0 0.0
2018-Feb-13 01:57N 53°27' W 003°01'0 0.0
2018-Feb-13 01:30N 53°27' W 003°01'0 0.0
2018-Feb-13 01:00N 53°27' W 003°01'0 0.0
2018-Feb-13 00:30N 53°27' W 003°01'0 0.0
2018-Feb-13 00:00N 53°27' W 003°01'0 0.0
2018-Feb-12 23:30N 53°27' W 003°01'0 0.0
2018-Feb-12 22:54N 53°27' W 003°01'0 0.0
2018-Feb-12 22:30N 53°27' W 003°01'0 0.0
2018-Feb-12 22:00N 53°27' W 003°01'0 0.0
2018-Feb-12 21:30N 53°27' W 003°01'0 0.0
2018-Feb-12 21:00N 53°27' W 003°01'0 0.0
2018-Feb-12 20:30N 53°27' W 003°01'0 0.5
2018-Feb-12 20:00N 53°27' W 003°01'0 0.4
2018-Feb-12 19:30N 53°27' W 003°01'1 1.3
2018-Feb-12 18:58N 53°26' W 003°01'0 0.0
2018-Feb-12 18:22N 53°26' W 003°01'0 0.9
2018-Feb-12 17:58N 53°27' W 003°01'0 0.3
2018-Feb-12 17:28N 53°27' W 003°01'0 0.0
2018-Feb-12 16:55N 53°27' W 003°01'0 0.0
2018-Feb-12 16:19N 53°27' W 003°01'0 0.0
2018-Feb-12 15:58N 53°27' W 003°01'0 0.0
2018-Feb-12 15:13N 53°27' W 003°01'0 0.0
2018-Feb-12 14:58N 53°27' W 003°01'0 0.0
2018-Feb-12 14:28N 53°27' W 003°01'0 0.0
2018-Feb-12 13:55N 53°27' W 003°01'0 0.0
2018-Feb-12 13:28N 53°27' W 003°01'0 0.0
2018-Feb-12 12:58N 53°27' W 003°01'0 0.0
2018-Feb-12 12:28N 53°27' W 003°01'0 0.0
2018-Feb-12 11:58N 53°27' W 003°01'0 0.0
2018-Feb-12 11:28N 53°27' W 003°01'0 0.0
2018-Feb-12 10:55N 53°27' W 003°01'0 0.0
2018-Feb-12 10:28N 53°27' W 003°01'0 0.0
2018-Feb-12 09:55N 53°27' W 003°01'0 0.0
2018-Feb-12 09:28N 53°27' W 003°01'0 0.0
2018-Feb-12 08:58N 53°27' W 003°01'0 0.0
2018-Feb-12 08:22N 53°27' W 003°01'0 0.0
2018-Feb-12 07:58N 53°27' W 003°01'0 0.0
2018-Feb-12 07:28N 53°27' W 003°01'0 0.0
2018-Feb-12 06:58N 53°27' W 003°01'0 0.0
2018-Feb-12 06:28N 53°27' W 003°01'0 0.0
2018-Feb-12 05:55N 53°27' W 003°01'0 0.0
2018-Feb-12 05:28N 53°27' W 003°01'0 0.0
2018-Feb-12 04:55N 53°27' W 003°01'0 0.0
2018-Feb-12 04:28N 53°27' W 003°01'0 0.0
2018-Feb-12 03:58N 53°27' W 003°01'0 0.0
2018-Feb-12 03:22N 53°27' W 003°01'0 0.0
2018-Feb-12 02:58N 53°27' W 003°01'0 0.0
2018-Feb-12 02:28N 53°27' W 003°01'0 0.0
2018-Feb-12 01:58N 53°27' W 003°01'0 0.0
2018-Feb-12 01:28N 53°27' W 003°01'0 0.0
2018-Feb-12 00:55N 53°27' W 003°01'0 0.0
2018-Feb-12 00:28N 53°27' W 003°01'0 0.0
2018-Feb-11 23:58N 53°27' W 003°01'0 0.0
2018-Feb-11 23:25N 53°27' W 003°01'0 0.0
2018-Feb-11 22:58N 53°27' W 003°01'0 0.0
2018-Feb-11 22:25N 53°27' W 003°01'0 0.0
2018-Feb-11 21:58N 53°27' W 003°01'0 0.0
2018-Feb-11 21:28N 53°27' W 003°01'0 0.0
2018-Feb-11 20:58N 53°27' W 003°01'0 0.0
2018-Feb-11 20:28N 53°27' W 003°01'0 0.0
2018-Feb-11 19:58N 53°27' W 003°01'0 0.0
2018-Feb-11 19:28N 53°27' W 003°01'0 0.0
2018-Feb-11 18:58N 53°27' W 003°01'0 0.0
2018-Feb-11 18:28N 53°27' W 003°01'0 0.0
2018-Feb-11 17:58N 53°27' W 003°01'0 0.0
2018-Feb-11 17:28N 53°27' W 003°01'0 0.0
2018-Feb-11 16:55N 53°27' W 003°01'0 0.0
2018-Feb-11 16:28N 53°27' W 003°01'0 0.0
2018-Feb-11 15:55N 53°27' W 003°01'0 0.0
2018-Feb-11 15:28N 53°27' W 003°01'0 0.0
2018-Feb-11 14:58N 53°27' W 003°01'0 0.0
2018-Feb-11 14:28N 53°27' W 003°01'0 0.0
2018-Feb-11 13:58N 53°27' W 003°01'0 0.0
2018-Feb-11 13:28N 53°27' W 003°01'0 0.0
2018-Feb-11 12:55N 53°27' W 003°01'0 0.0
2018-Feb-11 12:28N 53°27' W 003°01'0 0.0
2018-Feb-11 11:58N 53°27' W 003°01'0 0.0
2018-Feb-11 11:28N 53°27' W 003°01'0 0.0
2018-Feb-11 10:58N 53°27' W 003°01'0 0.0
2018-Feb-11 10:25N 53°27' W 003°01'0 0.0
2018-Feb-11 09:58N 53°27' W 003°01'0 0.0
2018-Feb-11 09:28N 53°27' W 003°01'0 0.0
2018-Feb-11 08:55N 53°27' W 003°01'0 0.0
2018-Feb-11 08:25N 53°27' W 003°01'0 0.0
2018-Feb-11 07:58N 53°27' W 003°01'0 0.0
2018-Feb-11 07:28N 53°27' W 003°01'0 0.0
2018-Feb-11 06:58N 53°27' W 003°01'0 0.0
2018-Feb-11 06:28N 53°27' W 003°01'0 0.0
2018-Feb-11 05:58N 53°27' W 003°01'0 0.0
2018-Feb-11 05:28N 53°27' W 003°01'0 0.0
2018-Feb-11 04:55N 53°27' W 003°01'0 0.0
2018-Feb-11 04:25N 53°27' W 003°01'0 0.0
2018-Feb-11 03:58N 53°27' W 003°01'0 0.0
2018-Feb-11 03:19N 53°27' W 003°01'0 0.0
2018-Feb-11 02:58N 53°27' W 003°01'0 0.0
2018-Feb-11 02:28N 53°27' W 003°01'0 0.0
2018-Feb-11 01:58N 53°27' W 003°01'0 0.0
2018-Feb-11 01:28N 53°27' W 003°01'0 0.0
2018-Feb-11 00:55N 53°27' W 003°01'0 0.0
2018-Feb-11 00:28N 53°27' W 003°01'0 0.0
2018-Feb-10 23:58N 53°27' W 003°01'0 0.0
2018-Feb-10 23:28N 53°27' W 003°01'0 0.0
2018-Feb-10 22:58N 53°27' W 003°01'0 0.0
2018-Feb-10 22:28N 53°27' W 003°01'0 0.0
2018-Feb-10 21:58N 53°27' W 003°01'0 0.0
2018-Feb-10 21:28N 53°27' W 003°01'0 0.0
2018-Feb-10 20:58N 53°27' W 003°01'0 0.0
2018-Feb-10 20:28N 53°27' W 003°01'0 0.0
2018-Feb-10 19:58N 53°27' W 003°01'0 0.0
2018-Feb-10 19:28N 53°27' W 003°01'0 0.0
2018-Feb-10 18:58N 53°27' W 003°01'0 0.0
2018-Feb-10 18:28N 53°27' W 003°01'0 0.0
2018-Feb-10 17:58N 53°27' W 003°01'0 0.0
2018-Feb-10 17:28N 53°27' W 003°01'0 0.0
2018-Feb-10 16:58N 53°27' W 003°01'0 0.0
2018-Feb-10 16:22N 53°27' W 003°01'0 0.0
2018-Feb-10 15:58N 53°27' W 003°01'0 0.0
2018-Feb-10 15:28N 53°27' W 003°01'0 0.0
2018-Feb-10 14:58N 53°27' W 003°01'0 0.0
2018-Feb-10 14:28N 53°27' W 003°01'0 0.0
2018-Feb-10 13:58N 53°27' W 003°01'0 0.0
2018-Feb-10 13:25N 53°27' W 003°01'0 0.0
2018-Feb-10 12:58N 53°27' W 003°01'0 0.0
2018-Feb-10 12:25N 53°27' W 003°01'0 0.0
2018-Feb-10 11:58N 53°27' W 003°01'0 0.0
2018-Feb-10 11:28N 53°27' W 003°01'0 0.0
2018-Feb-10 10:58N 53°27' W 003°01'0 0.0
2018-Feb-10 10:25N 53°27' W 003°01'0 0.0
2018-Feb-10 09:58N 53°27' W 003°01'0 0.0
2018-Feb-10 09:25N 53°27' W 003°01'0 0.0
2018-Feb-10 08:58N 53°27' W 003°01'0 0.0
2018-Feb-10 08:28N 53°27' W 003°01'0 0.0
2018-Feb-10 07:55N 53°27' W 003°01'0 0.0
2018-Feb-10 07:28N 53°27' W 003°01'0 0.0
2018-Feb-10 06:58N 53°27' W 003°01'0 0.0
2018-Feb-10 06:28N 53°27' W 003°01'0 0.0
2018-Feb-10 05:58N 53°27' W 003°01'0 0.0
2018-Feb-10 05:28N 53°27' W 003°01'0 0.0
2018-Feb-10 04:58N 53°27' W 003°01'0 0.0
2018-Feb-10 04:28N 53°27' W 003°01'0 0.0
2018-Feb-10 03:58N 53°27' W 003°01'0 0.0
2018-Feb-10 03:28N 53°27' W 003°01'0 0.0
2018-Feb-10 02:55N 53°27' W 003°01'0 0.0
2018-Feb-10 02:28N 53°27' W 003°01'0 0.0
2018-Feb-10 01:58N 53°27' W 003°01'0 0.0
2018-Feb-10 01:28N 53°27' W 003°01'0 0.0
2018-Feb-10 00:58N 53°27' W 003°01'0 0.0
2018-Feb-10 00:28N 53°27' W 003°01'0 0.0
2018-Feb-09 23:58N 53°27' W 003°01'0 0.0
2018-Feb-09 23:28N 53°27' W 003°01'0 0.0
2018-Feb-09 22:55N 53°27' W 003°01'0 0.0
2018-Feb-09 22:43N 53°27' W 003°01'  

Dump ship's entire track history